Time;durP1;ratioP1;P1;durP2;ratioP2;P2;SDS_P1;SDS_P2;PMS_P1;PMS_P2;Temp;Humidity;BMP_temperature;BMP_pressure;BME280_temperature;BME280_humidity;BME280_pressure;Samples;Min_cycle;Max_cycle;Signal;HPM_P1;HPM_P2
2021/07/19 00:01:12;;;;;;;16.75;9.38;;;;;;;16.41;83.90;102428.44;4929550;28;20236;-47
2021/07/19 00:03:38;;;;;;;19.88;9.63;;;;;;;16.43;83.92;102429.34;4919041;28;20019;-47
2021/07/19 00:06:03;;;;;;;17.90;9.88;;;;;;;16.44;83.51;102437.28;4920317;28;20704;-51
2021/07/19 00:08:29;;;;;;;15.88;9.13;;;;;;;16.42;83.35;102436.34;4911220;28;20495;-50
2021/07/19 00:10:54;;;;;;;15.00;8.82;;;;;;;16.41;83.32;102439.84;4925689;28;20058;-48
2021/07/19 00:13:20;;;;;;;13.93;8.50;;;;;;;16.39;83.32;102446.84;4920538;28;20042;-51
2021/07/19 00:15:46;;;;;;;12.57;8.57;;;;;;;16.36;83.35;102441.53;4923209;28;20050;-51
2021/07/19 00:18:11;;;;;;;15.50;8.68;;;;;;;16.32;83.45;102431.84;4919145;28;20122;-49
2021/07/19 00:20:37;;;;;;;12.35;8.43;;;;;;;16.27;83.54;102432.63;4922369;28;20414;-50
2021/07/19 00:23:02;;;;;;;15.73;8.68;;;;;;;16.27;83.38;102437.91;4908426;28;20781;-52
2021/07/19 00:25:28;;;;;;;14.00;8.40;;;;;;;16.26;83.39;102441.38;4921297;28;20097;-50
2021/07/19 00:27:55;;;;;;;15.80;8.90;;;;;;;16.27;83.29;102444.03;4923582;28;20496;-49
2021/07/19 00:30:22;;;;;;;15.80;8.90;;;;;;;16.27;83.14;102436.16;4918537;28;20574;-47
2021/07/19 00:32:47;;;;;;;13.88;8.32;;;;;;;16.24;83.27;102438.72;4906380;28;20027;-50
2021/07/19 00:35:13;;;;;;;14.30;8.50;;;;;;;16.21;83.00;102442.22;4925100;28;20253;-49
2021/07/19 00:37:38;;;;;;;13.20;8.07;;;;;;;16.18;82.81;102446.53;4920460;28;20377;-49
2021/07/19 00:40:10;;;;;;;12.85;8.07;;;;;;;16.16;83.21;102449.13;4901215;28;20387;-50
2021/07/19 00:42:37;;;;;;;13.88;8.25;;;;;;;16.13;83.17;102443.81;4923697;28;20085;-50
2021/07/19 00:45:08;;;;;;;13.18;7.93;;;;;;;16.12;83.37;102454.31;4926719;28;20316;-50
2021/07/19 00:47:34;;;;;;;13.52;7.93;;;;;;;16.09;83.43;102456.91;4916228;28;20445;-49
2021/07/19 00:49:59;;;;;;;13.18;8.27;;;;;;;16.03;83.50;102448.94;4925397;28;20043;-52
2021/07/19 00:52:25;;;;;;;14.48;8.85;;;;;;;15.99;83.85;102444.47;4903374;28;20681;-52
2021/07/19 00:54:51;;;;;;;15.50;8.57;;;;;;;15.98;83.79;102443.56;4914323;28;20024;-47
2021/07/19 00:57:18;;;;;;;15.50;8.48;;;;;;;15.97;83.72;102444.47;4910761;28;20040;-50
2021/07/19 00:59:44;;;;;;;12.63;7.50;;;;;;;15.99;83.84;102445.34;4911430;28;20507;-53
2021/07/19 01:02:10;;;;;;;11.65;7.13;;;;;;;16.01;83.92;102446.25;4904056;28;20383;-48
2021/07/19 01:04:35;;;;;;;11.20;6.80;;;;;;;16.04;83.64;102440.19;4899129;28;20024;-51
2021/07/19 01:07:03;;;;;;;13.75;7.15;;;;;;;16.04;83.44;102441.03;4922168;28;20038;-48
2021/07/19 01:09:29;;;;;;;10.10;7.38;;;;;;;16.01;83.48;102443.63;4932268;28;20565;-48
2021/07/19 01:12:04;;;;;;;12.85;7.10;;;;;;;16.03;83.28;102441.03;4914245;28;20069;-51
2021/07/19 01:14:30;;;;;;;10.77;6.28;;;;;;;16.01;83.08;102437.47;4927139;28;20349;-49
2021/07/19 01:16:55;;;;;;;12.25;6.80;;;;;;;16.01;83.27;102438.38;4922738;28;20362;-52
2021/07/19 01:19:22;;;;;;;13.82;6.35;;;;;;;16.00;83.03;102438.34;4904624;28;20039;-49
2021/07/19 01:22:25;;;;;;;14.15;6.30;;;;;;;16.00;82.79;102435.72;4915284;28;21089;-53
2021/07/19 01:25:08;;;;;;;11.35;6.85;;;;;;;15.99;82.74;102440.09;4910139;28;20168;-50
2021/07/19 01:27:58;;;;;;;10.32;6.50;;;;;;;15.95;82.91;102443.53;4932589;28;20045;-49
2021/07/19 01:30:27;;;;;;;12.73;7.60;;;;;;;15.92;82.84;102445.25;4908486;28;20032;-50
2021/07/19 01:32:53;;;;;;;15.07;7.25;;;;;;;15.91;82.70;102448.72;4906458;28;20035;-52
2021/07/19 01:35:19;;;;;;;17.55;7.45;;;;;;;15.84;83.00;102439.84;4907459;28;20043;-50
2021/07/19 01:37:46;;;;;;;10.80;7.18;;;;;;;15.79;83.21;102433.63;4934293;28;20042;-48
2021/07/19 01:40:12;;;;;;;13.15;7.03;;;;;;;15.68;83.86;102435.16;4910176;28;20028;-48
2021/07/19 01:42:38;;;;;;;13.07;7.65;;;;;;;15.64;83.85;102431.63;4920828;28;20061;-48
2021/07/19 01:45:05;;;;;;;13.43;7.18;;;;;;;15.62;83.63;102430.69;4911080;28;20031;-50
2021/07/19 01:47:31;;;;;;;11.90;6.72;;;;;;;15.60;83.72;102427.19;4912956;28;20070;-51
2021/07/19 01:49:58;;;;;;;14.15;7.18;;;;;;;15.57;83.85;102432.38;4907225;28;20035;-49
2021/07/19 01:52:24;;;;;;;12.90;6.85;;;;;;;15.57;83.87;102434.09;4907162;28;20055;-48
2021/07/19 01:54:49;;;;;;;12.13;6.70;;;;;;;15.41;84.36;102436.44;4904951;28;20134;-49
2021/07/19 01:57:15;;;;;;;13.50;7.80;;;;;;;15.49;84.27;102435.69;4909883;28;20111;-50
2021/07/19 01:59:42;;;;;;;16.55;7.93;;;;;;;15.47;84.18;102432.16;4923831;28;20039;-51
2021/07/19 02:02:08;;;;;;;9.70;6.25;;;;;;;15.43;84.28;102420.69;4924858;28;20047;-50
2021/07/19 02:04:33;;;;;;;13.15;6.97;;;;;;;15.41;84.27;102418.03;4923893;28;20460;-51
2021/07/19 02:06:59;;;;;;;13.70;7.28;;;;;;;15.39;84.63;102419.75;4921933;28;20035;-49
2021/07/19 02:09:25;;;;;;;14.27;7.78;;;;;;;15.38;84.40;102423.22;4907877;28;20058;-49
2021/07/19 02:11:51;;;;;;;12.57;7.43;;;;;;;15.34;84.37;102418.78;4925276;28;20042;-49
2021/07/19 02:14:17;;;;;;;14.45;7.25;;;;;;;15.28;84.68;102416.03;4927554;28;20035;-50
2021/07/19 02:16:50;;;;;;;15.88;7.53;;;;;;;15.25;84.62;102409.81;4903291;28;20028;-52
2021/07/19 02:19:16;;;;;;;13.75;7.78;;;;;;;15.20;84.72;102414.13;4908987;28;20654;-50
2021/07/19 02:21:42;;;;;;;13.15;6.97;;;;;;;15.17;84.65;102417.59;4902790;28;20502;-50
2021/07/19 02:24:07;;;;;;;11.77;6.65;;;;;;;15.15;85.02;102423.66;4920701;28;20146;-50
2021/07/19 02:26:33;;;;;;;13.15;7.50;;;;;;;15.15;85.08;102428.91;4925619;28;20297;-49
2021/07/19 02:28:58;;;;;;;13.60;7.25;;;;;;;15.16;84.94;102428.94;4930470;28;20039;-48
2021/07/19 02:31:24;;;;;;;14.60;7.22;;;;;;;15.13;85.28;102434.13;4920978;28;21809;-50
2021/07/19 02:33:50;;;;;;;10.73;6.43;;;;;;;15.12;85.09;102436.75;4918486;28;20032;-49
2021/07/19 02:36:16;;;;;;;14.07;7.80;;;;;;;15.08;85.26;102430.53;4926721;28;20027;-52
2021/07/19 02:38:46;;;;;;;11.50;7.50;;;;;;;15.05;85.21;102430.50;4908987;28;20046;-50
2021/07/19 02:41:12;;;;;;;12.35;6.88;;;;;;;15.02;85.15;102423.41;4921011;28;20039;-55
2021/07/19 02:43:37;;;;;;;15.13;7.63;;;;;;;14.99;85.29;102427.75;4911953;28;20027;-48
2021/07/19 02:46:03;;;;;;;16.90;7.97;;;;;;;14.97;85.55;102425.06;4921642;28;20040;-50
2021/07/19 02:48:30;;;;;;;12.48;7.03;;;;;;;14.95;85.68;102439.91;4910015;28;20058;-48
2021/07/19 02:50:58;;;;;;;14.10;7.53;;;;;;;14.93;85.63;102431.13;4925082;28;20451;-47
2021/07/19 02:53:25;;;;;;;16.05;7.90;;;;;;;14.92;85.87;102424.09;4921916;28;20036;-50
2021/07/19 02:55:51;;;;;;;11.82;6.93;;;;;;;14.91;85.60;102424.06;4899892;28;20624;-49
2021/07/19 02:58:18;;;;;;;14.00;7.03;;;;;;;14.91;85.49;102424.06;4907328;28;20711;-48
2021/07/19 03:00:45;;;;;;;13.50;7.28;;;;;;;14.90;85.44;102425.81;4922789;28;20054;-50
2021/07/19 03:03:24;;;;;;;12.55;7.00;;;;;;;14.87;85.49;102425.75;4923734;28;20027;-49
2021/07/19 03:05:51;;;;;;;14.68;7.68;;;;;;;14.85;85.65;102421.31;4909171;28;20517;-49
2021/07/19 03:08:17;;;;;;;12.35;7.50;;;;;;;14.84;85.59;102422.16;4911603;28;20035;-50
2021/07/19 03:10:49;;;;;;;13.88;7.22;;;;;;;14.81;85.70;102436.13;4909451;28;20115;-50
2021/07/19 03:13:19;;;;;;;13.85;7.20;;;;;;;14.78;85.60;102438.69;4919386;28;20042;-53
2021/07/19 03:15:45;;;;;;;14.18;7.13;;;;;;;14.79;85.67;102442.19;4911343;28;20028;-51
2021/07/19 03:18:11;;;;;;;16.30;8.40;;;;;;;14.82;85.85;102445.75;4900742;28;20028;-48
2021/07/19 03:20:40;;;;;;;14.57;7.80;;;;;;;14.85;85.66;102443.22;4919942;28;20131;-52
2021/07/19 03:23:09;;;;;;;16.08;7.93;;;;;;;14.84;85.40;102435.28;4928437;28;20126;-51
2021/07/19 03:25:34;;;;;;;18.65;7.80;;;;;;;14.85;85.66;102440.59;4918385;28;20035;-53
2021/07/19 03:28:00;;;;;;;16.17;7.45;;;;;;;14.90;85.71;102438.03;4904364;28;20359;-47
2021/07/19 03:30:26;;;;;;;14.40;7.93;;;;;;;14.99;86.10;102435.63;4897892;28;20150;-52
2021/07/19 03:32:51;;;;;;;12.40;7.45;;;;;;;15.04;85.91;102439.22;4906309;28;20469;-48
2021/07/19 03:35:27;;;;;;;14.52;7.90;;;;;;;15.11;85.80;102440.22;4901692;28;20039;-53
2021/07/19 03:37:53;;;;;;;17.85;8.75;;;;;;;15.15;85.61;102444.66;4905737;28;20429;-49
2021/07/19 03:40:21;;;;;;;15.63;8.45;;;;;;;15.18;85.72;102443.00;4903885;28;20032;-48
2021/07/19 03:42:48;;;;;;;14.40;8.52;;;;;;;15.22;85.62;102442.19;4900931;28;20111;-49
2021/07/19 03:45:14;;;;;;;13.00;7.75;;;;;;;15.29;85.41;102453.72;4904839;28;20050;-52
2021/07/19 03:47:41;;;;;;;17.13;8.02;;;;;;;15.32;85.08;102444.13;4905782;28;20039;-48
2021/07/19 03:50:07;;;;;;;14.85;7.38;;;;;;;15.35;85.04;102446.84;4905601;28;20551;-49
2021/07/19 03:52:35;;;;;;;13.82;7.53;;;;;;;15.36;84.69;102450.34;4904769;28;20039;-52
2021/07/19 03:55:01;;;;;;;11.60;6.55;;;;;;;15.39;84.71;102453.03;4904364;28;20044;-49
2021/07/19 03:57:26;;;;;;;12.38;7.30;;;;;;;15.42;84.72;102445.22;4907152;28;20208;-48
2021/07/19 03:59:52;;;;;;;12.98;7.20;;;;;;;15.43;84.63;102439.97;4905058;28;20598;-52
2021/07/19 04:02:18;;;;;;;14.32;7.43;;;;;;;15.48;84.69;102440.06;4904775;28;20039;-52
2021/07/19 04:04:50;;;;;;;13.95;7.57;;;;;;;15.54;84.52;102434.06;4902078;28;20027;-51
2021/07/19 04:07:16;;;;;;;14.98;7.85;;;;;;;15.60;84.53;102431.53;4905016;28;20463;-52
2021/07/19 04:09:41;;;;;;;13.15;8.00;;;;;;;15.70;84.01;102438.72;4904273;28;20082;-48
2021/07/19 04:12:14;;;;;;;13.30;7.30;;;;;;;15.80;83.74;102431.00;4911140;28;20484;-49
2021/07/19 04:14:40;;;;;;;15.40;7.68;;;;;;;15.86;83.47;102438.09;4906568;28;20040;-50
2021/07/19 04:17:05;;;;;;;15.55;8.40;;;;;;;15.91;82.97;102436.47;4899217;28;20031;-48
2021/07/19 04:19:31;;;;;;;13.20;7.40;;;;;;;15.98;83.16;102435.69;4907645;28;20040;-49
2021/07/19 04:21:56;;;;;;;18.02;8.07;;;;;;;16.05;82.82;102426.13;4903998;28;20044;-51
2021/07/19 04:24:22;;;;;;;15.77;7.90;;;;;;;16.09;82.16;102425.34;4903303;28;20421;-51
2021/07/19 04:26:47;;;;;;;14.15;7.97;;;;;;;16.17;82.08;102419.31;4906355;28;20339;-51
2021/07/19 04:29:13;;;;;;;13.80;7.95;;;;;;;16.30;82.01;102419.50;4905747;28;20039;-50
2021/07/19 04:31:38;;;;;;;12.93;7.93;;;;;;;16.39;81.47;102419.66;4918169;28;20435;-52
2021/07/19 04:34:04;;;;;;;14.00;7.30;;;;;;;16.48;80.89;102423.28;4924156;28;20464;-50
2021/07/19 04:36:32;;;;;;;15.75;7.88;;;;;;;16.50;80.38;102423.31;4919546;28;20319;-50
2021/07/19 04:38:57;;;;;;;14.80;8.32;;;;;;;16.53;80.34;102426.84;4923922;28;20499;-54
2021/07/19 04:41:23;;;;;;;14.13;7.88;;;;;;;16.55;79.94;102418.97;4906382;28;20118;-48
2021/07/19 04:43:48;;;;;;;12.60;7.72;;;;;;;16.62;80.43;102427.03;4904824;28;20046;-50
2021/07/19 04:46:15;;;;;;;12.75;7.15;;;;;;;16.69;79.76;102414.81;4923034;28;20443;-49
2021/07/19 04:48:40;;;;;;;12.68;8.07;;;;;;;16.69;80.33;102424.47;4930209;28;20031;-49
2021/07/19 04:51:06;;;;;;;13.70;7.53;;;;;;;16.70;79.96;102420.97;4934603;28;20030;-49
2021/07/19 04:53:31;;;;;;;10.80;7.10;;;;;;;16.72;79.76;102424.50;4919556;28;20415;-50
2021/07/19 04:55:58;;;;;;;13.57;7.57;;;;;;;16.74;79.78;102428.94;4901845;28;20154;-48
2021/07/19 04:58:25;;;;;;;10.68;7.13;;;;;;;16.74;79.53;102436.84;4922696;28;20043;-51
2021/07/19 05:01:00;;;;;;;13.10;7.05;;;;;;;16.81;79.66;102422.88;4913653;28;20036;-48
2021/07/19 05:03:27;;;;;;;11.82;6.97;;;;;;;16.84;79.25;102422.00;4927322;28;20035;-49
2021/07/19 05:05:54;;;;;;;12.30;7.38;;;;;;;16.91;79.49;102423.88;4934084;28;20035;-47
2021/07/19 05:08:20;;;;;;;16.88;7.43;;;;;;;16.99;79.38;102430.13;4910416;28;20397;-51
2021/07/19 05:10:47;;;;;;;12.38;7.47;;;;;;;17.14;78.83;102430.28;4914932;28;20078;-52
2021/07/19 05:13:13;;;;;;;11.95;7.18;;;;;;;17.29;78.47;102416.38;4922152;28;20051;-47
2021/07/19 05:15:41;;;;;;;10.60;7.07;;;;;;;17.41;79.19;102425.31;4898180;28;20031;-54
2021/07/19 05:18:08;;;;;;;12.25;7.15;;;;;;;17.49;77.62;102435.06;4922418;28;20066;-48
2021/07/19 05:20:35;;;;;;;12.15;6.18;;;;;;;17.62;77.07;102429.94;4925011;28;20031;-53
2021/07/19 05:23:01;;;;;;;11.77;6.70;;;;;;;17.87;75.52;102424.88;4906521;28;20031;-49
2021/07/19 05:25:30;;;;;;;11.48;6.55;;;;;;;18.11;75.32;102431.19;4923289;28;20863;-49
2021/07/19 05:27:58;;;;;;;12.18;6.15;;;;;;;18.41;73.70;102430.53;4926538;28;20067;-48
2021/07/19 05:30:26;;;;;;;12.05;6.25;;;;;;;18.54;73.10;102429.69;4921976;28;20057;-50
2021/07/19 05:32:52;;;;;;;15.32;6.20;;;;;;;18.42;72.86;102423.50;4923422;28;20487;-48
2021/07/19 05:35:21;;;;;;;10.85;6.50;;;;;;;18.29;73.69;102421.66;4925733;28;20439;-47
2021/07/19 05:37:47;;;;;;;11.27;6.53;;;;;;;18.12;74.08;102435.59;4922860;28;20539;-52
2021/07/19 05:40:13;;;;;;;15.80;6.97;;;;;;;18.01;75.07;102423.22;4924169;28;20031;-51
2021/07/19 05:42:41;;;;;;;15.95;7.20;;;;;;;17.87;75.79;102428.38;4909261;28;20399;-52
2021/07/19 05:45:10;;;;;;;12.05;6.80;;;;;;;17.81;76.09;102428.31;4931296;28;20035;-50
2021/07/19 05:47:36;;;;;;;11.10;7.07;;;;;;;17.65;76.50;102427.31;4939082;28;20398;-51
2021/07/19 05:50:03;;;;;;;11.60;7.18;;;;;;;17.60;77.26;102429.03;4920045;28;20031;-50
2021/07/19 05:52:29;;;;;;;12.73;7.25;;;;;;;17.47;78.00;102421.84;4940478;28;20051;-50
2021/07/19 05:54:56;;;;;;;12.02;7.20;;;;;;;17.47;78.12;102428.88;4929738;28;20035;-47
2021/07/19 05:57:23;;;;;;;13.80;8.00;;;;;;;17.49;77.67;102429.78;4933400;28;21107;-48
2021/07/19 05:59:49;;;;;;;13.10;7.88;;;;;;;17.56;77.77;102426.34;4928731;28;20283;-51
2021/07/19 06:02:17;;;;;;;12.68;7.47;;;;;;;17.67;76.76;102412.41;4926603;28;20078;-49
2021/07/19 06:04:43;;;;;;;12.40;6.60;;;;;;;17.77;76.03;102423.91;4925147;28;20094;-51
2021/07/19 06:07:08;;;;;;;11.68;7.10;;;;;;;17.89;75.54;102417.84;4925137;28;20097;-50
2021/07/19 06:09:33;;;;;;;11.98;7.30;;;;;;;17.95;75.14;102421.41;4932709;28;20122;-50
2021/07/19 06:11:58;;;;;;;11.77;7.50;;;;;;;18.03;76.02;102422.38;4925015;28;20530;-52
2021/07/19 06:14:24;;;;;;;10.98;7.38;;;;;;;18.13;74.44;102423.28;4927605;28;20551;-51
2021/07/19 06:16:50;;;;;;;12.48;6.90;;;;;;;18.19;75.13;102424.22;4926905;28;20027;-49
2021/07/19 06:19:19;;;;;;;13.02;7.00;;;;;;;18.30;74.69;102431.34;4928146;28;20063;-50
2021/07/19 06:21:44;;;;;;;13.15;7.18;;;;;;;18.33;73.69;102429.59;4926991;28;20451;-49
2021/07/19 06:24:09;;;;;;;15.05;7.40;;;;;;;18.30;73.75;102434.84;4922162;28;20039;-50
2021/07/19 06:26:35;;;;;;;11.15;6.93;;;;;;;18.41;73.01;102435.81;4930913;28;20032;-51
2021/07/19 06:29:00;;;;;;;12.73;7.57;;;;;;;18.33;74.27;102437.53;4923052;28;20455;-48
2021/07/19 06:31:26;;;;;;;10.65;6.78;;;;;;;18.40;73.89;102436.69;4929871;28;20266;-50
2021/07/19 06:33:51;;;;;;;14.35;7.40;;;;;;;18.36;73.34;102437.53;4923511;28;20474;-52
2021/07/19 06:36:17;;;;;;;14.65;7.18;;;;;;;18.40;72.89;102435.81;4917318;28;20061;-51
2021/07/19 06:38:43;;;;;;;14.45;7.40;;;;;;;18.46;72.53;102444.66;4928642;28;20070;-51
2021/07/19 06:41:11;;;;;;;13.00;7.10;;;;;;;18.54;73.07;102436.78;4927010;28;20158;-50
2021/07/19 06:43:37;;;;;;;15.25;7.63;;;;;;;18.61;73.04;102439.47;4919728;28;20024;-52
2021/07/19 06:46:02;;;;;;;12.70;7.00;;;;;;;18.71;71.68;102437.78;4925609;28;20164;-52
2021/07/19 06:48:27;;;;;;;13.20;7.18;;;;;;;19.29;69.94;102448.53;4921778;28;20080;-49
2021/07/19 06:50:53;;;;;;;12.57;7.03;;;;;;;19.69;68.95;102454.81;4920891;28;20088;-50
2021/07/19 06:53:18;;;;;;;11.50;6.97;;;;;;;19.77;68.68;102450.41;4920812;28;20027;-51
2021/07/19 06:55:44;;;;;;;14.63;7.13;;;;;;;19.77;68.73;102459.22;4929469;28;20039;-53
2021/07/19 06:58:09;;;;;;;12.63;6.70;;;;;;;19.76;69.24;102462.75;4900867;28;20045;-54
2021/07/19 07:00:35;;;;;;;13.65;6.93;;;;;;;19.63;69.02;102457.47;4919024;28;20189;-52
2021/07/19 07:03:00;;;;;;;11.50;6.80;;;;;;;19.93;67.61;102457.47;4920336;28;20506;-49
2021/07/19 07:05:25;;;;;;;14.65;6.68;;;;;;;19.90;67.14;102459.22;4901688;28;20038;-52
2021/07/19 07:07:51;;;;;;;13.00;7.00;;;;;;;19.80;67.74;102453.94;4907492;28;20038;-52
2021/07/19 07:10:16;;;;;;;13.73;7.30;;;;;;;19.62;68.87;102453.94;4919817;28;20390;-55
2021/07/19 07:12:43;;;;;;;12.70;6.82;;;;;;;19.49;69.87;102452.16;4918989;28;20070;-50
2021/07/19 07:15:09;;;;;;;12.70;6.95;;;;;;;19.35;67.89;102451.19;4920172;28;20034;-48
2021/07/19 07:17:35;;;;;;;11.73;6.88;;;;;;;19.19;69.22;102449.41;4922833;28;20177;-53
2021/07/19 07:20:00;;;;;;;12.93;7.45;;;;;;;19.18;70.37;102450.28;4925385;28;20089;-51
2021/07/19 07:22:25;;;;;;;12.20;7.55;;;;;;;19.19;70.89;102447.63;4920617;28;20427;-53
2021/07/19 07:24:51;;;;;;;14.05;7.15;;;;;;;19.32;71.79;102452.09;4927263;28;20039;-52
2021/07/19 07:27:19;;;;;;;10.93;6.78;;;;;;;19.56;68.78;102440.69;4926843;28;20605;-51
2021/07/19 07:29:45;;;;;;;10.20;6.90;;;;;;;19.63;67.24;102445.13;4909403;28;20031;-48
2021/07/19 07:32:10;;;;;;;13.05;7.75;;;;;;;19.68;67.34;102443.34;4921814;28;20023;-49
2021/07/19 07:34:36;;;;;;;13.27;7.22;;;;;;;19.80;67.07;102445.13;4924290;28;20054;-48
2021/07/19 07:37:02;;;;;;;11.50;7.35;;;;;;;19.82;66.61;102448.66;4899271;28;20431;-51
2021/07/19 07:39:27;;;;;;;13.27;7.25;;;;;;;19.88;65.55;102446.00;4929851;28;20331;-51
2021/07/19 07:41:52;;;;;;;11.95;7.40;;;;;;;20.02;65.87;102446.88;4905281;28;20027;-51
2021/07/19 07:44:18;;;;;;;10.15;6.75;;;;;;;20.07;63.96;102439.81;4922788;28;20038;-50
2021/07/19 07:46:44;;;;;;;11.93;6.40;;;;;;;20.29;62.87;102438.03;4924437;28;20024;-50
2021/07/19 07:49:09;;;;;;;9.23;6.22;;;;;;;20.48;62.09;102444.19;4922401;28;20118;-51
2021/07/19 07:51:35;;;;;;;9.68;5.90;;;;;;;20.75;62.09;102441.44;4925219;28;20390;-52
2021/07/19 07:54:00;;;;;;;9.95;6.10;;;;;;;20.96;64.03;102440.47;4923914;28;20060;-47
2021/07/19 07:56:26;;;;;;;9.70;6.75;;;;;;;21.12;64.15;102438.63;4918727;28;20063;-48
2021/07/19 07:58:52;;;;;;;7.97;5.50;;;;;;;21.56;63.51;102444.56;4933418;28;21577;-52
2021/07/19 08:01:17;;;;;;;9.98;6.03;;;;;;;22.12;59.38;102444.16;4921246;28;20510;-51
2021/07/19 08:03:43;;;;;;;10.25;5.93;;;;;;;22.67;58.76;102435.56;4926002;28;20203;-47
2021/07/19 08:06:08;;;;;;;9.10;5.10;;;;;;;22.98;54.94;102437.00;4922142;28;20061;-53
2021/07/19 08:08:33;;;;;;;6.72;4.43;;;;;;;22.93;52.82;102441.47;4922004;28;20041;-49
2021/07/19 08:10:59;;;;;;;6.95;4.50;;;;;;;22.55;55.37;102438.38;4922917;28;21174;-50
2021/07/19 08:13:25;;;;;;;7.57;4.60;;;;;;;22.27;55.15;102446.63;4916595;28;20031;-49
2021/07/19 08:15:50;;;;;;;7.85;4.90;;;;;;;22.00;57.67;102452.22;4922819;28;20526;-48
2021/07/19 08:18:16;;;;;;;9.70;4.60;;;;;;;21.87;57.28;102450.53;4924863;28;20109;-52
2021/07/19 08:20:45;;;;;;;8.45;4.68;;;;;;;21.78;60.06;102446.16;4925505;28;20391;-50
2021/07/19 08:23:11;;;;;;;8.98;4.70;;;;;;;21.75;57.40;102442.66;4910930;28;20919;-49
2021/07/19 08:25:37;;;;;;;7.20;4.68;;;;;;;21.66;57.86;102440.94;4918466;28;20032;-51
2021/07/19 08:28:03;;;;;;;6.60;4.40;;;;;;;21.63;58.44;102441.00;4922898;28;20083;-48
2021/07/19 08:30:28;;;;;;;7.82;4.75;;;;;;;21.55;57.71;102429.53;4924062;28;20039;-48
2021/07/19 08:32:54;;;;;;;8.15;4.70;;;;;;;21.53;57.63;102435.78;4934338;28;20108;-50
2021/07/19 08:35:19;;;;;;;7.88;4.85;;;;;;;21.70;57.83;102444.47;4950051;28;20055;-50
2021/07/19 08:37:47;;;;;;;8.98;4.95;;;;;;;22.04;55.77;102435.34;4930858;28;20040;-51
2021/07/19 08:40:17;;;;;;;9.65;5.03;;;;;;;22.24;54.47;102435.16;4954838;28;20438;-51
2021/07/19 08:42:43;;;;;;;7.32;4.45;;;;;;;22.45;53.89;102436.69;4919933;28;20736;-52
2021/07/19 08:45:10;;;;;;;7.82;4.47;;;;;;;22.37;54.33;102444.78;4937316;28;20037;-53
2021/07/19 08:47:36;;;;;;;9.23;4.82;;;;;;;22.44;55.92;102443.81;4927977;28;20034;-49
2021/07/19 08:50:04;;;;;;;7.03;5.30;;;;;;;22.39;55.42;102445.63;4930636;28;20705;-51
2021/07/19 08:52:30;;;;;;;12.52;6.13;;;;;;;22.53;54.08;102437.50;4928539;28;20039;-49
2021/07/19 08:54:56;;;;;;;10.20;5.70;;;;;;;22.61;55.65;102436.53;4920133;28;20016;-51
2021/07/19 08:57:23;;;;;;;8.57;5.50;;;;;;;22.54;54.36;102436.63;4906470;28;20483;-53
2021/07/19 08:59:49;;;;;;;8.10;5.18;;;;;;;22.63;55.84;102440.03;4935704;28;20049;-48
2021/07/19 09:02:15;;;;;;;10.02;6.22;;;;;;;22.59;54.74;102433.00;4908875;28;20032;-52
2021/07/19 09:04:40;;;;;;;9.40;5.63;;;;;;;22.93;58.09;102435.28;4924926;28;20035;-52
2021/07/19 09:07:06;;;;;;;13.65;6.20;;;;;;;23.08;53.21;102443.06;4927229;28;20912;-52
2021/07/19 09:09:33;;;;;;;10.65;5.78;;;;;;;23.33;57.77;102436.50;4935225;28;20032;-49
2021/07/19 09:12:06;;;;;;;15.93;6.40;;;;;;;23.39;53.27;102440.84;4928029;28;20066;-51
2021/07/19 09:14:32;;;;;;;9.90;5.82;;;;;;;23.57;53.86;102432.59;4931602;28;20034;-50
2021/07/19 09:16:58;;;;;;;12.48;6.22;;;;;;;23.54;53.10;102434.44;4937708;28;20058;-52
2021/07/19 09:19:26;;;;;;;12.02;6.40;;;;;;;23.77;53.52;102433.16;4934747;28;20529;-51
2021/07/19 09:22:02;;;;;;;10.75;6.47;;;;;;;23.88;53.48;102429.44;4927203;28;20043;-50
2021/07/19 09:24:30;;;;;;;10.85;6.32;;;;;;;24.07;52.79;102426.44;4930231;28;20352;-51
2021/07/19 09:26:56;;;;;;;10.38;6.88;;;;;;;23.58;52.77;102433.47;4941373;28;20135;-51
2021/07/19 09:29:23;;;;;;;11.07;6.65;;;;;;;23.25;53.49;102438.38;4926007;28;20094;-51
2021/07/19 09:31:58;;;;;;;10.73;6.57;;;;;;;23.21;53.69;102431.34;4918555;28;20734;-52
2021/07/19 09:34:26;;;;;;;8.93;5.75;;;;;;;23.53;53.82;102424.69;4931716;28;20039;-52
2021/07/19 09:37:09;;;;;;;9.25;6.05;;;;;;;23.80;51.26;102417.13;4912800;28;20031;-50
2021/07/19 09:39:42;;;;;;;10.90;6.03;;;;;;;23.73;56.71;102419.91;4923785;28;20937;-52
2021/07/19 09:42:30;;;;;;;12.13;6.53;;;;;;;23.84;51.90;102417.97;4931412;28;20031;-50
2021/07/19 09:44:57;;;;;;;10.43;6.30;;;;;;;23.80;52.53;102417.13;4926323;28;20124;-51
2021/07/19 09:47:37;;;;;;;9.60;6.35;;;;;;;23.77;53.35;102421.63;4934616;28;20174;-50
2021/07/19 09:50:09;;;;;;;15.00;6.90;;;;;;;23.68;53.40;102420.00;4927083;28;20038;-52
2021/07/19 09:52:35;;;;;;;13.23;6.50;;;;;;;23.53;53.67;102414.06;4927493;28;20107;-52
2021/07/19 09:55:00;;;;;;;10.65;6.50;;;;;;;23.37;53.71;102416.91;4931848;28;20482;-51
2021/07/19 09:57:25;;;;;;;11.20;7.05;;;;;;;23.26;54.48;102424.16;4920944;28;20491;-48
2021/07/19 09:59:55;;;;;;;12.07;6.70;;;;;;;22.97;56.45;102423.69;4938447;28;20336;-48
2021/07/19 10:02:38;;;;;;;11.95;6.22;;;;;;;23.01;54.57;102415.66;4908190;28;20088;-51
2021/07/19 10:05:10;;;;;;;11.88;7.10;;;;;;;22.90;57.23;102417.59;4941287;28;20031;-49
2021/07/19 10:07:44;;;;;;;13.00;7.00;;;;;;;22.91;56.02;102410.50;4928014;28;20548;-49
2021/07/19 10:10:10;;;;;;;11.27;6.50;;;;;;;23.03;55.03;102402.34;4925134;28;20138;-51
2021/07/19 10:12:36;;;;;;;12.50;7.30;;;;;;;23.16;55.40;102411.03;4929415;28;20035;-52
2021/07/19 10:15:04;;;;;;;10.63;6.50;;;;;;;23.46;54.21;102399.91;4921669;28;20100;-50
2021/07/19 10:17:30;;;;;;;8.53;5.67;;;;;;;23.70;53.13;102398.66;4934363;28;20149;-52
2021/07/19 10:19:56;;;;;;;10.38;6.20;;;;;;;23.55;57.37;102399.78;4917145;28;20617;-53
2021/07/19 10:22:22;;;;;;;11.57;6.43;;;;;;;23.74;51.42;102393.25;4907128;28;20027;-51
2021/07/19 10:24:47;;;;;;;10.75;6.00;;;;;;;24.12;52.62;102392.56;4934492;28;20036;-50
2021/07/19 10:27:26;;;;;;;9.50;6.22;;;;;;;24.29;52.93;102391.41;4877373;28;1208032;-50
2021/07/19 10:29:52;;;;;;;9.50;6.07;;;;;;;24.61;51.19;102394.31;4925165;28;20023;-49
2021/07/19 10:32:22;;;;;;;12.38;6.28;;;;;;;24.80;49.67;102382.34;4931608;28;20023;-49
2021/07/19 10:34:49;;;;;;;8.90;5.75;;;;;;;24.98;48.93;102389.09;4913990;28;20058;-49
2021/07/19 10:37:21;;;;;;;8.57;5.30;;;;;;;25.32;47.96;102382.03;4901683;28;20059;-51
2021/07/19 10:39:50;;;;;;;9.88;6.22;;;;;;;24.52;46.83;102389.16;4936738;28;20036;-52
2021/07/19 10:42:16;;;;;;;11.57;5.93;;;;;;;25.03;46.38;102382.72;4934156;28;20569;-48
2021/07/19 10:44:43;;;;;;;16.15;6.30;;;;;;;25.06;47.52;102387.13;4922756;28;20040;-48
2021/07/19 10:47:20;;;;;;;15.38;6.40;;;;;;;24.96;46.82;102393.56;4921656;28;20345;-51
2021/07/19 10:50:04;;;;;;;8.43;5.80;;;;;;;24.93;45.29;102389.19;4920265;28;20036;-53
2021/07/19 10:52:37;;;;;;;8.90;5.78;;;;;;;24.90;45.92;102377.69;4915138;28;20827;-55
2021/07/19 10:55:04;;;;;;;9.80;6.32;;;;;;;24.82;45.67;102377.84;4920679;28;20143;-52
2021/07/19 10:57:44;;;;;;;14.27;6.55;;;;;;;24.90;47.69;102373.25;4922747;28;20036;-51
2021/07/19 11:00:13;;;;;;;11.32;5.97;;;;;;;25.30;46.10;102370.53;4921666;28;20101;-52
2021/07/19 11:02:39;;;;;;;9.15;5.97;;;;;;;25.07;44.47;102372.84;4931142;28;20051;-50
2021/07/19 11:05:06;;;;;;;13.48;6.18;;;;;;;24.78;44.65;102367.25;4927762;28;20633;-52
2021/07/19 11:07:43;;;;;;;8.55;5.80;;;;;;;24.90;44.51;102367.91;4936235;28;20031;-53
2021/07/19 11:10:16;;;;;;;10.18;5.88;;;;;;;24.87;45.23;102373.28;4932877;28;20481;-51
2021/07/19 11:12:49;;;;;;;9.88;5.88;;;;;;;25.11;49.23;102363.88;4929351;28;20051;-52
2021/07/19 11:15:15;;;;;;;9.45;6.22;;;;;;;25.38;43.80;102360.53;4921306;28;20418;-51
2021/07/19 11:17:40;;;;;;;12.02;6.25;;;;;;;25.48;43.89;102355.88;4906666;28;20259;-50
2021/07/19 11:20:12;;;;;;;7.90;6.15;;;;;;;25.31;44.47;102360.75;4925381;28;20526;-52